createdAt,value
2018-12-22T00:01:45.946Z,7.20
2018-12-22T00:03:48.040Z,7.20
2018-12-22T00:05:50.112Z,7.10
2018-12-22T00:07:52.208Z,7.10
2018-12-22T00:09:54.496Z,7.00
2018-12-22T00:11:56.587Z,7.00
2018-12-22T00:13:59.027Z,7.00
2018-12-22T00:16:01.240Z,7.00
2018-12-22T00:20:06.148Z,7.00
2018-12-22T00:22:08.333Z,6.90
2018-12-22T00:24:10.541Z,6.90
2018-12-22T00:26:13.038Z,6.90
2018-12-22T00:28:22.163Z,6.90
2018-12-22T00:30:19.412Z,6.90
2018-12-22T00:32:21.623Z,6.90
2018-12-22T00:34:23.683Z,6.90
2018-12-22T00:36:25.854Z,6.90
2018-12-22T00:38:28.046Z,6.90
2018-12-22T00:40:30.228Z,6.90
2018-12-22T00:42:32.306Z,6.90
2018-12-22T00:44:34.382Z,6.90
2018-12-22T00:46:36.688Z,6.90
2018-12-22T00:48:38.888Z,7.00
2018-12-22T00:50:41.068Z,6.90
2018-12-22T00:52:43.251Z,6.90
2018-12-22T00:54:45.341Z,7.00
2018-12-22T00:56:47.539Z,7.00
2018-12-22T00:58:49.616Z,7.00
2018-12-22T01:00:51.685Z,6.90
2018-12-22T01:02:53.775Z,6.90
2018-12-22T01:04:55.877Z,6.90
2018-12-22T01:06:57.938Z,6.90
2018-12-22T01:09:00.030Z,6.90
2018-12-22T01:11:02.108Z,6.90
2018-12-22T01:13:04.418Z,6.90
2018-12-22T01:15:06.840Z,6.90
2018-12-22T01:17:08.909Z,6.90
2018-12-22T01:19:11.100Z,6.90
2018-12-22T01:21:13.183Z,6.90
2018-12-22T01:23:15.281Z,6.90
2018-12-22T01:25:17.604Z,6.90
2018-12-22T01:27:19.675Z,6.90
2018-12-22T01:29:21.740Z,6.90
2018-12-22T01:31:24.244Z,6.90
2018-12-22T01:33:26.429Z,6.90
2018-12-22T01:35:28.616Z,6.90
2018-12-22T02:03:59.096Z,7.50
2018-12-22T02:06:01.356Z,7.20
2018-12-22T02:08:03.535Z,7.10
2018-12-22T02:10:05.717Z,7.00
2018-12-22T02:12:07.785Z,6.90
2018-12-22T02:14:09.972Z,6.90
2018-12-22T02:16:12.039Z,6.90
2018-12-22T02:18:14.107Z,6.90
2018-12-22T02:20:16.527Z,6.90
2018-12-22T02:22:18.707Z,6.90
2018-12-22T02:24:20.892Z,6.80
2018-12-22T02:26:23.178Z,6.80
2018-12-22T02:28:25.253Z,6.90
2018-12-22T02:30:27.313Z,6.80
2018-12-22T02:32:29.625Z,6.80
2018-12-22T02:34:31.804Z,6.80
2018-12-22T02:36:33.853Z,6.80
2018-12-22T02:38:35.927Z,6.80
2018-12-22T02:40:38.020Z,6.70
2018-12-22T02:42:40.236Z,6.80
2018-12-22T02:44:42.300Z,6.80
2018-12-22T02:46:44.402Z,6.80
2018-12-22T02:48:46.589Z,6.70
2018-12-22T02:50:48.763Z,6.80
2018-12-22T02:52:50.861Z,6.80
2018-12-22T02:54:52.916Z,6.80
2018-12-22T02:56:55.260Z,6.80
2018-12-22T02:59:05.614Z,6.80
2018-12-22T03:01:01.620Z,6.70
2018-12-22T03:03:03.964Z,6.80
2018-12-22T03:05:06.268Z,6.70
2018-12-22T03:07:08.552Z,6.80
2018-12-22T03:09:10.629Z,6.70
2018-12-22T03:11:12.806Z,6.80
2018-12-22T03:13:14.921Z,6.80
2018-12-22T03:15:17.087Z,6.80
2018-12-22T03:17:19.402Z,6.80
2018-12-22T03:19:21.649Z,6.80
2018-12-22T03:21:23.756Z,6.80
2018-12-22T03:23:26.052Z,6.70
2018-12-22T03:25:28.117Z,6.70
2018-12-22T03:27:30.187Z,6.80
2018-12-22T03:29:32.400Z,6.80
2018-12-22T03:31:34.457Z,6.70
2018-12-22T03:33:36.625Z,6.70
2018-12-22T03:35:38.806Z,6.70
2018-12-22T03:37:41.077Z,6.80
2018-12-22T03:39:43.320Z,6.80
2018-12-22T03:41:45.385Z,6.80
2018-12-22T03:43:47.580Z,6.80
2018-12-22T03:45:49.652Z,6.80
2018-12-22T03:47:51.720Z,6.70
2018-12-22T03:49:54.043Z,6.80
2018-12-22T03:51:56.109Z,6.70
2018-12-22T03:53:58.245Z,6.70
2018-12-22T03:56:00.437Z,6.70
2018-12-22T03:58:02.493Z,6.60
2018-12-22T04:00:05.083Z,6.60
2018-12-22T04:02:07.471Z,6.70
2018-12-22T04:04:09.535Z,6.60
2018-12-22T04:06:12.008Z,6.70
2018-12-22T04:08:14.148Z,6.60
2018-12-22T04:10:16.405Z,6.70
2018-12-22T04:12:18.771Z,6.70
2018-12-22T04:14:20.847Z,6.70
2018-12-22T04:16:23.125Z,6.70
2018-12-22T04:18:25.276Z,6.80
2018-12-22T04:20:27.348Z,6.70
2018-12-22T04:22:29.411Z,6.70
2018-12-22T04:24:31.492Z,6.70
2018-12-22T04:26:33.670Z,6.70
2018-12-22T04:28:35.840Z,6.70
2018-12-22T04:30:38.196Z,6.70
2018-12-22T04:32:40.379Z,6.70
2018-12-22T04:34:42.548Z,6.70
2018-12-22T04:36:44.637Z,6.70
2018-12-22T04:38:46.825Z,6.80
2018-12-22T04:40:49.000Z,6.80
2018-12-22T04:42:51.072Z,6.70
2018-12-22T04:44:53.147Z,6.70
2018-12-22T04:46:55.336Z,6.70
2018-12-22T04:48:57.908Z,6.70
2018-12-22T04:51:00.081Z,6.60
2018-12-22T04:53:02.270Z,6.60
2018-12-22T04:55:04.825Z,6.60
2018-12-22T04:57:06.957Z,6.70
2018-12-22T04:59:09.064Z,6.60
2018-12-22T05:01:11.334Z,6.60
2018-12-22T05:03:13.499Z,6.60
2018-12-22T05:05:15.597Z,6.60
2018-12-22T05:07:17.872Z,6.60
2018-12-22T05:09:19.948Z,6.60
2018-12-22T05:11:22.201Z,6.50
2018-12-22T05:13:24.385Z,6.40
2018-12-22T05:15:27.064Z,6.50
2018-12-22T05:17:29.245Z,6.50
2018-12-22T05:19:31.309Z,6.50
2018-12-22T05:21:33.388Z,6.50
2018-12-22T05:23:35.460Z,6.50
2018-12-22T05:25:37.523Z,6.50
2018-12-22T05:27:39.689Z,6.50
2018-12-22T05:29:41.747Z,6.60
2018-12-22T05:31:43.813Z,6.50
2018-12-22T05:33:45.912Z,6.60
2018-12-22T05:35:47.973Z,6.50
2018-12-22T05:37:50.044Z,6.50
2018-12-22T05:39:52.244Z,6.60
2018-12-22T05:41:54.300Z,6.50
2018-12-22T05:43:56.368Z,6.50
2018-12-22T05:45:58.432Z,6.50
2018-12-22T05:48:00.483Z,6.40
2018-12-22T05:50:03.047Z,6.50
2018-12-22T05:52:05.130Z,6.40
2018-12-22T05:54:07.197Z,6.40
2018-12-22T05:56:09.252Z,6.40
2018-12-22T05:58:11.354Z,6.40
2018-12-22T06:00:13.427Z,6.40
2018-12-22T06:02:15.499Z,6.50
2018-12-22T06:04:17.673Z,6.50
2018-12-22T06:06:20.124Z,6.50
2018-12-22T06:08:22.305Z,6.50
2018-12-22T06:10:24.568Z,6.50
2018-12-22T06:12:26.744Z,6.60
2018-12-22T06:14:28.832Z,6.50
2018-12-22T06:16:30.897Z,6.50
2018-12-22T06:18:32.969Z,6.40
2018-12-22T06:20:35.165Z,6.40
2018-12-22T06:22:37.351Z,6.50
2018-12-22T06:24:39.538Z,6.40
2018-12-22T06:26:41.710Z,6.40
2018-12-22T06:28:43.839Z,6.40
2018-12-22T06:30:46.032Z,6.40
2018-12-22T06:32:48.209Z,6.40
2018-12-22T06:34:50.367Z,6.40
2018-12-22T06:36:52.593Z,6.40
2018-12-22T06:38:54.666Z,6.40
2018-12-22T06:40:56.852Z,6.40
2018-12-22T06:42:58.910Z,6.40
2018-12-22T06:45:00.961Z,6.30
2018-12-22T06:47:03.248Z,6.40
2018-12-22T06:49:05.720Z,6.40
2018-12-22T06:51:07.790Z,6.40
2018-12-22T06:53:09.952Z,6.30
2018-12-22T06:55:12.056Z,6.30
2018-12-22T06:57:14.146Z,6.30
2018-12-22T06:59:16.208Z,6.30
2018-12-22T07:01:18.498Z,6.30
2018-12-22T07:03:20.557Z,6.30
2018-12-22T07:05:22.840Z,6.30
2018-12-22T07:07:25.096Z,6.30
2018-12-22T07:09:27.184Z,6.20
2018-12-22T07:11:29.268Z,6.20
2018-12-22T07:13:31.431Z,6.20
2018-12-22T07:15:33.584Z,6.20
2018-12-22T07:17:35.879Z,6.20
2018-12-22T07:19:38.012Z,6.10
2018-12-22T07:21:40.325Z,6.20
2018-12-22T07:23:42.392Z,6.20
2018-12-22T07:25:44.514Z,6.20
2018-12-22T07:27:46.702Z,6.20
2018-12-22T07:29:48.876Z,6.20
2018-12-22T07:31:50.972Z,6.20
2018-12-22T07:33:53.071Z,6.30
2018-12-22T07:35:55.274Z,6.30
2018-12-22T07:38:16.948Z,6.30
2018-12-22T07:40:19.284Z,6.30
2018-12-22T07:42:21.471Z,6.30
2018-12-22T07:44:23.604Z,6.30
2018-12-22T07:46:25.797Z,6.40
2018-12-22T07:48:27.889Z,6.30
2018-12-22T07:50:30.176Z,6.30
2018-12-22T07:52:32.618Z,6.30
2018-12-22T07:54:34.695Z,6.30
2018-12-22T07:56:36.768Z,6.40
2018-12-22T07:58:39.060Z,6.30
2018-12-22T08:00:41.140Z,6.30
2018-12-22T08:02:43.343Z,6.30
2018-12-22T08:04:45.752Z,6.40
2018-12-22T08:06:47.920Z,6.40
2018-12-22T08:08:50.140Z,6.40
2018-12-22T08:10:52.245Z,6.40
2018-12-22T08:12:54.420Z,6.40
2018-12-22T08:14:56.568Z,6.40
2018-12-22T08:16:58.652Z,6.40
2018-12-22T08:19:00.731Z,6.40
2018-12-22T08:21:03.071Z,6.40
2018-12-22T08:23:05.231Z,6.50
2018-12-22T08:25:07.424Z,6.50
2018-12-22T08:27:09.498Z,6.60
2018-12-22T08:29:12.294Z,6.60
2018-12-22T08:31:14.485Z,6.60
2018-12-22T08:33:16.714Z,6.60
2018-12-22T08:35:18.842Z,6.50
2018-12-22T08:37:21.152Z,6.50
2018-12-22T08:39:23.235Z,6.60
2018-12-22T08:41:25.545Z,6.60
2018-12-22T08:43:32.028Z,6.50
2018-12-22T08:45:41.828Z,6.50
2018-12-22T08:47:43.957Z,6.60
2018-12-22T08:49:46.037Z,6.60
2018-12-22T08:51:48.272Z,6.60
2018-12-22T08:53:50.475Z,6.60
2018-12-22T08:55:52.669Z,6.60
2018-12-22T08:57:54.915Z,6.60
2018-12-22T08:59:57.916Z,6.60
2018-12-22T09:02:01.148Z,6.50
2018-12-22T09:04:03.468Z,6.50
2018-12-22T09:06:06.211Z,6.60
2018-12-22T09:08:08.308Z,6.60
2018-12-22T09:10:10.511Z,6.70
2018-12-22T09:12:12.701Z,6.70
2018-12-22T09:14:14.805Z,6.70
2018-12-22T09:16:16.909Z,6.80
2018-12-22T09:18:19.117Z,6.70
2018-12-22T09:20:21.410Z,6.70
2018-12-22T09:22:23.593Z,6.70
2018-12-22T09:24:26.776Z,6.80
2018-12-22T09:26:29.103Z,6.80
2018-12-22T09:28:31.281Z,6.80
2018-12-22T09:30:33.431Z,6.80
2018-12-22T09:32:35.495Z,6.70
2018-12-22T09:34:38.040Z,6.70
2018-12-22T09:36:40.329Z,6.70
2018-12-22T09:38:42.498Z,6.80
2018-12-22T09:40:45.277Z,6.80
2018-12-22T09:42:48.076Z,6.80
2018-12-22T09:44:51.068Z,6.80
2018-12-22T09:46:53.293Z,6.70
2018-12-22T09:48:55.605Z,6.70
2018-12-22T09:50:57.700Z,6.80
2018-12-22T09:53:00.439Z,6.60
2018-12-22T09:55:02.860Z,6.60
2018-12-22T09:57:05.056Z,6.60
2018-12-22T09:59:07.437Z,6.60
2018-12-22T10:01:09.776Z,6.60
2018-12-22T10:03:12.133Z,6.70
2018-12-22T10:05:14.212Z,6.60
2018-12-22T10:07:17.160Z,6.70
2018-12-22T10:09:19.674Z,6.70
2018-12-22T10:11:22.757Z,6.80
2018-12-22T10:13:25.225Z,6.80
2018-12-22T10:15:27.997Z,6.70
2018-12-22T10:17:30.216Z,6.70
2018-12-22T10:19:32.916Z,6.80
2018-12-22T10:21:35.132Z,6.80
2018-12-22T10:23:37.224Z,6.90
2018-12-22T10:25:39.418Z,6.90
2018-12-22T10:27:41.621Z,6.90
2018-12-22T10:29:44.753Z,6.90
2018-12-22T10:31:47.516Z,7.00
2018-12-22T10:33:49.704Z,7.30
2018-12-22T10:35:51.793Z,7.40
2018-12-22T10:37:53.968Z,7.50
2018-12-22T10:39:56.036Z,7.70
2018-12-22T10:41:58.198Z,7.80
2018-12-22T10:44:00.261Z,7.80
2018-12-22T10:46:02.353Z,7.80
2018-12-22T10:48:04.855Z,7.80
2018-12-22T10:50:07.176Z,7.70
2018-12-22T10:52:09.275Z,7.80
2018-12-22T10:54:11.372Z,7.80
2018-12-22T10:56:13.544Z,7.80
2018-12-22T10:58:15.640Z,7.80
2018-12-22T11:00:18.609Z,7.70
2018-12-22T11:02:20.711Z,7.70
2018-12-22T11:04:22.921Z,7.60
2018-12-22T11:06:25.154Z,7.50
2018-12-22T11:08:27.328Z,7.40
2018-12-22T11:10:29.401Z,7.30
2018-12-22T11:12:31.556Z,7.30
2018-12-22T11:14:33.676Z,7.30
2018-12-22T11:16:36.012Z,7.30
2018-12-22T11:18:38.274Z,7.30
2018-12-22T11:20:40.484Z,7.40
2018-12-22T11:22:42.576Z,7.40
2018-12-22T11:24:44.750Z,7.50
2018-12-22T11:26:46.992Z,7.50
2018-12-22T11:28:49.228Z,7.50
2018-12-22T11:30:51.480Z,7.50
2018-12-22T11:32:53.668Z,7.50
2018-12-22T11:34:56.397Z,7.50
2018-12-22T11:36:58.564Z,7.60
2018-12-22T11:39:00.664Z,7.60
2018-12-22T11:41:03.396Z,7.50
2018-12-22T11:43:05.608Z,7.50
2018-12-22T11:45:07.819Z,7.70
2018-12-22T11:47:19.426Z,7.70
2018-12-22T11:49:41.076Z,7.70
2018-12-22T11:51:43.678Z,7.70
2018-12-22T11:53:45.871Z,7.80
2018-12-22T11:55:48.012Z,7.80
2018-12-22T11:57:50.450Z,7.80
2018-12-22T11:59:52.512Z,7.70
2018-12-22T12:01:54.575Z,7.80
2018-12-22T12:03:56.757Z,7.60
2018-12-22T12:05:58.952Z,7.40
2018-12-22T12:08:01.027Z,7.30
2018-12-22T12:10:04.177Z,7.20
2018-12-22T12:12:06.436Z,7.20
2018-12-22T12:14:08.531Z,7.20
2018-12-22T12:16:17.584Z,7.10
2018-12-22T12:18:27.252Z,7.20
2018-12-22T12:20:29.415Z,7.10
2018-12-22T12:22:31.520Z,7.20
2018-12-22T12:24:33.720Z,7.30
2018-12-22T12:26:35.796Z,7.20
2018-12-22T12:28:37.971Z,7.20
2018-12-22T12:30:40.192Z,7.20
2018-12-22T12:32:42.315Z,7.20
2018-12-22T12:34:44.397Z,7.10
2018-12-22T12:36:46.712Z,7.20
2018-12-22T12:38:48.924Z,7.10
2018-12-22T12:40:51.001Z,7.10
2018-12-22T12:42:53.364Z,7.20
2018-12-22T12:44:55.471Z,7.20
2018-12-22T12:46:57.839Z,7.10
2018-12-22T12:49:00.016Z,7.20
2018-12-22T12:51:02.177Z,7.10
2018-12-22T12:53:09.530Z,7.20
2018-12-22T12:55:10.788Z,7.30
2018-12-22T12:57:13.264Z,7.20
2018-12-22T12:59:15.451Z,7.20
2018-12-22T13:01:17.960Z,7.20
2018-12-22T13:03:45.045Z,7.30
2018-12-22T13:06:16.026Z,7.20
2018-12-22T13:08:18.370Z,7.10
2018-12-22T13:10:20.622Z,7.10
2018-12-22T13:12:25.640Z,7.10
2018-12-22T13:14:27.849Z,7.20
2018-12-22T13:16:30.872Z,7.20
2018-12-22T13:18:33.056Z,7.10
2018-12-22T13:20:35.141Z,7.10
2018-12-22T13:22:37.510Z,7.00
2018-12-22T13:24:39.855Z,7.00
2018-12-22T13:26:41.937Z,7.10
2018-12-22T13:28:44.131Z,7.10
2018-12-22T13:30:46.337Z,7.10
2018-12-22T13:32:49.021Z,7.10
2018-12-22T13:34:51.284Z,7.10
2018-12-22T13:36:53.468Z,7.10
2018-12-22T13:39:01.443Z,7.10
2018-12-22T13:41:03.864Z,7.10
2018-12-22T13:43:05.936Z,7.10
2018-12-22T13:45:08.486Z,7.20
2018-12-22T13:47:10.764Z,7.20
2018-12-22T13:49:13.132Z,7.20
2018-12-22T13:51:15.410Z,7.10
2018-12-22T13:53:17.631Z,7.10
2018-12-22T13:55:19.793Z,7.10
2018-12-22T13:57:21.881Z,7.10
2018-12-22T13:59:24.224Z,7.10
2018-12-22T14:01:26.736Z,7.10
2018-12-22T14:03:36.412Z,7.10
2018-12-22T14:05:38.687Z,7.10
2018-12-22T14:07:40.919Z,7.10
2018-12-22T14:09:43.036Z,7.20
2018-12-22T14:11:45.192Z,7.20
2018-12-22T14:13:47.304Z,7.20
2018-12-22T14:15:53.820Z,7.20
2018-12-22T14:18:02.084Z,7.20
2018-12-22T14:20:14.596Z,7.30
2018-12-22T14:22:16.892Z,7.40
2018-12-22T14:24:28.660Z,7.40
2018-12-22T14:26:30.718Z,7.40
2018-12-22T14:28:32.894Z,7.40
2018-12-22T14:30:35.998Z,7.40
2018-12-22T14:32:38.408Z,7.30
2018-12-22T14:34:50.977Z,7.20
2018-12-22T14:36:53.153Z,7.20
2018-12-22T14:38:55.340Z,7.20
2018-12-22T14:40:57.736Z,7.10
2018-12-22T14:42:59.856Z,7.10
2018-12-22T14:45:02.123Z,7.10
2018-12-22T14:47:04.205Z,7.10
2018-12-22T14:49:06.289Z,7.10
2018-12-22T14:51:08.368Z,7.10
2018-12-22T14:53:10.670Z,7.20
2018-12-22T14:55:12.860Z,7.20
2018-12-22T14:57:14.948Z,7.20
2018-12-22T14:59:19.283Z,7.20
2018-12-22T15:01:21.340Z,7.20
2018-12-22T15:03:23.427Z,7.20
2018-12-22T15:05:25.743Z,7.20
2018-12-22T15:07:27.848Z,7.20
2018-12-22T15:09:29.908Z,7.20
2018-12-22T15:11:32.092Z,7.20
2018-12-22T15:13:34.176Z,7.20
2018-12-22T15:15:36.244Z,7.10
2018-12-22T15:17:38.815Z,7.20
2018-12-22T15:19:40.892Z,7.20
2018-12-22T15:21:43.188Z,7.10
2018-12-22T15:23:45.361Z,7.10
2018-12-22T15:25:47.429Z,7.10
2018-12-22T15:27:49.593Z,7.10
2018-12-22T15:29:51.757Z,7.10
2018-12-22T15:31:54.172Z,7.10
2018-12-22T15:33:56.415Z,7.10
2018-12-22T15:35:58.592Z,7.10
2018-12-22T15:38:00.765Z,7.10
2018-12-22T15:40:03.344Z,7.10
2018-12-22T15:42:05.606Z,7.10
2018-12-22T15:44:07.884Z,7.10
2018-12-22T15:46:10.085Z,7.00
2018-12-22T15:48:12.374Z,7.10
2018-12-22T15:50:16.731Z,7.10
2018-12-22T15:52:18.814Z,7.10
2018-12-22T15:54:21.163Z,7.10
2018-12-22T15:56:23.232Z,7.10
2018-12-22T15:58:25.344Z,7.10
2018-12-22T16:00:27.428Z,7.10
2018-12-22T16:02:29.493Z,7.10
2018-12-22T16:04:31.904Z,7.10
2018-12-22T16:06:34.099Z,7.00
2018-12-22T16:08:36.178Z,7.00
2018-12-22T16:13:08.849Z,7.00
2018-12-22T16:15:13.795Z,7.00
2018-12-22T16:17:16.029Z,7.00
2018-12-22T16:19:18.177Z,7.00
2018-12-22T16:21:20.406Z,7.00
2018-12-22T16:23:22.542Z,7.00
2018-12-22T16:25:25.081Z,7.00
2018-12-22T16:27:27.376Z,7.00
2018-12-22T16:29:34.940Z,6.90
2018-12-22T16:31:37.202Z,6.90
2018-12-22T16:33:39.664Z,6.90
2018-12-22T16:35:41.888Z,6.90
2018-12-22T16:37:44.180Z,6.90
2018-12-22T16:39:46.293Z,6.90
2018-12-22T16:41:48.716Z,6.90
2018-12-22T16:43:50.938Z,6.90
2018-12-22T16:45:53.324Z,6.90
2018-12-22T16:47:56.049Z,6.90
2018-12-22T16:49:58.176Z,6.90
2018-12-22T16:52:00.387Z,6.90
2018-12-22T16:54:03.139Z,6.90
2018-12-22T16:56:05.543Z,6.90
2018-12-22T16:58:15.693Z,6.90
2018-12-22T17:00:21.812Z,7.00
2018-12-22T17:02:34.894Z,7.00
2018-12-22T17:04:37.815Z,7.00
2018-12-22T17:06:41.450Z,7.10
2018-12-22T17:08:43.598Z,7.10
2018-12-22T17:10:48.703Z,7.00
2018-12-22T17:12:50.947Z,7.00
2018-12-22T17:14:53.091Z,7.00
2018-12-22T17:16:55.193Z,7.00
2018-12-22T17:18:58.178Z,7.00
2018-12-22T17:21:12.724Z,7.00
2018-12-22T17:23:22.660Z,7.00
2018-12-22T17:26:00.276Z,7.00
2018-12-22T17:28:02.469Z,7.00
2018-12-22T17:30:05.194Z,7.00
2018-12-22T17:32:07.540Z,6.90
2018-12-22T17:34:09.903Z,6.90
2018-12-22T17:36:12.380Z,6.90
2018-12-22T17:38:15.003Z,7.00
2018-12-22T17:40:17.577Z,6.90
2018-12-22T17:42:20.840Z,6.90
2018-12-22T17:44:23.527Z,6.90
2018-12-22T17:46:26.246Z,6.90
2018-12-22T17:48:28.462Z,6.90
2018-12-22T17:50:30.845Z,7.00
2018-12-22T17:52:33.115Z,7.00
2018-12-22T17:54:36.299Z,7.00
2018-12-22T17:56:38.649Z,7.00
2018-12-22T17:58:40.802Z,7.00
2018-12-22T18:00:43.238Z,7.00
2018-12-22T18:02:45.720Z,7.00
2018-12-22T18:04:47.899Z,7.00
2018-12-22T18:06:50.118Z,7.00
2018-12-22T18:08:52.345Z,7.00
2018-12-22T18:10:54.850Z,7.00
2018-12-22T18:12:57.321Z,7.00
2018-12-22T18:14:59.549Z,7.00
2018-12-22T18:17:01.934Z,7.00
2018-12-22T18:19:04.295Z,7.00
2018-12-22T18:21:06.598Z,7.10
2018-12-22T18:23:08.781Z,7.00
2018-12-22T18:25:12.531Z,7.10
2018-12-22T18:27:14.840Z,7.00
2018-12-22T18:29:17.065Z,7.00
2018-12-22T18:31:19.329Z,7.00
2018-12-22T18:33:21.629Z,7.00
2018-12-22T18:35:23.935Z,7.00
2018-12-22T18:37:26.199Z,7.00
2018-12-22T18:39:28.592Z,7.00
2018-12-22T18:41:30.785Z,7.00
2018-12-22T18:43:33.135Z,7.00
2018-12-22T18:45:35.286Z,7.00
2018-12-22T18:47:37.563Z,7.00
2018-12-22T18:49:39.829Z,6.90
2018-12-22T18:51:42.055Z,7.00
2018-12-22T18:53:44.622Z,6.90
2018-12-22T18:55:46.770Z,6.90
2018-12-22T18:57:52.337Z,6.90
2018-12-22T18:59:54.465Z,6.90
2018-12-22T19:01:56.723Z,6.90
2018-12-22T19:03:59.383Z,6.90
2018-12-22T19:06:01.585Z,6.90
2018-12-22T19:08:08.155Z,6.90
2018-12-22T19:10:19.016Z,6.90
2018-12-22T19:12:21.160Z,6.80
2018-12-22T19:14:23.368Z,6.80
2018-12-22T19:16:26.848Z,6.80
2018-12-22T19:18:28.990Z,6.80
2018-12-22T19:20:38.626Z,6.70
2018-12-22T19:22:41.005Z,6.80
2018-12-22T19:24:43.255Z,6.80
2018-12-22T19:26:45.320Z,6.70
2018-12-22T19:28:47.621Z,6.70
2018-12-22T19:30:49.928Z,6.70
2018-12-22T19:32:52.171Z,6.70
2018-12-22T19:34:54.512Z,6.70
2018-12-22T19:36:56.555Z,6.60
2018-12-22T19:38:58.901Z,6.70
2018-12-22T19:41:01.540Z,6.60
2018-12-22T19:43:03.776Z,6.60
2018-12-22T19:45:06.077Z,6.60
2018-12-22T19:47:08.277Z,6.60
2018-12-22T19:49:10.864Z,6.70
2018-12-22T19:51:12.945Z,6.70
2018-12-22T19:53:15.153Z,6.60
2018-12-22T19:55:17.352Z,6.60
2018-12-22T19:57:19.656Z,6.60
2018-12-22T19:59:21.812Z,6.60
2018-12-22T20:01:23.880Z,6.60
2018-12-22T20:03:26.073Z,6.60
2018-12-22T20:05:28.140Z,6.60
2018-12-22T20:07:30.208Z,6.60
2018-12-22T20:09:32.305Z,6.60
2018-12-22T20:11:34.588Z,6.60
2018-12-22T20:13:36.745Z,6.50
2018-12-22T20:15:39.231Z,6.50
2018-12-22T20:17:41.308Z,6.50
2018-12-22T20:19:43.381Z,6.50
2018-12-22T20:21:45.492Z,6.40
2018-12-22T20:23:47.568Z,6.40
2018-12-22T20:25:49.693Z,6.40
2018-12-22T20:27:51.803Z,6.40
2018-12-22T20:29:53.980Z,6.40
2018-12-22T20:31:56.053Z,6.40
2018-12-22T20:33:58.153Z,6.40
2018-12-22T20:36:00.365Z,6.40
2018-12-22T20:38:02.561Z,6.40
2018-12-22T20:40:05.910Z,6.40
2018-12-22T20:42:08.292Z,6.40
2018-12-22T20:44:10.547Z,6.40
2018-12-22T20:46:12.728Z,6.40
2018-12-22T20:48:15.002Z,6.40
2018-12-22T20:50:17.113Z,6.30
2018-12-22T20:52:19.193Z,6.40
2018-12-22T20:54:21.398Z,6.40
2018-12-22T20:56:23.473Z,6.30
2018-12-22T20:58:25.540Z,6.30
2018-12-22T21:00:27.624Z,6.30
2018-12-22T21:02:29.692Z,6.30
2018-12-22T21:04:31.991Z,6.30
2018-12-22T21:06:34.192Z,6.30
2018-12-22T21:08:36.263Z,6.30
2018-12-22T21:10:38.496Z,6.30
2018-12-22T21:12:40.625Z,6.20
2018-12-22T21:14:42.868Z,6.30
2018-12-22T21:16:45.908Z,6.30
2018-12-22T21:18:47.970Z,6.20
2018-12-22T21:20:50.044Z,6.20
2018-12-22T21:22:52.133Z,6.20
2018-12-22T21:24:54.358Z,6.20
2018-12-22T21:26:56.608Z,6.20
2018-12-22T21:28:58.764Z,6.10
2018-12-22T21:31:00.832Z,6.10
2018-12-22T21:33:02.924Z,6.00
2018-12-22T21:35:05.353Z,6.00
2018-12-22T21:37:07.427Z,6.00
2018-12-22T21:39:09.596Z,6.00
2018-12-22T21:41:11.693Z,6.00
2018-12-22T21:43:13.765Z,6.00
2018-12-22T21:45:15.918Z,6.00
2018-12-22T21:47:18.210Z,6.00
2018-12-22T21:49:20.278Z,6.00
2018-12-22T21:51:22.480Z,6.10
2018-12-22T21:53:24.711Z,6.10
2018-12-22T21:55:26.948Z,6.10
2018-12-22T21:57:29.028Z,6.00
2018-12-22T21:59:31.220Z,6.10
2018-12-22T22:01:33.415Z,6.10
2018-12-22T22:03:35.500Z,6.00
2018-12-22T22:05:37.603Z,6.00
2018-12-22T22:07:39.896Z,6.00
2018-12-22T22:09:41.973Z,6.00
2018-12-22T22:11:44.148Z,6.00
2018-12-22T22:13:46.441Z,6.00
2018-12-22T22:15:48.520Z,6.00
2018-12-22T22:17:50.672Z,6.00
2018-12-22T22:19:52.960Z,6.00
2018-12-22T22:21:55.144Z,6.00
2018-12-22T22:23:57.228Z,6.00
2018-12-22T22:25:59.325Z,6.00
2018-12-22T22:28:01.384Z,6.00
2018-12-22T22:30:04.343Z,5.90
2018-12-22T22:32:06.719Z,5.90
2018-12-22T22:34:08.925Z,5.90
2018-12-22T22:36:11.267Z,5.90
2018-12-22T22:38:13.343Z,5.90
2018-12-22T22:40:15.522Z,5.90
2018-12-22T22:42:17.722Z,5.90
2018-12-22T22:44:20.357Z,5.90
2018-12-22T22:46:22.532Z,5.90
2018-12-22T22:48:24.649Z,5.90
2018-12-22T22:50:27.025Z,5.90
2018-12-22T22:52:30.349Z,5.90
2018-12-22T22:54:33.525Z,5.90
2018-12-22T22:56:36.182Z,5.90
2018-12-22T22:58:38.461Z,5.90
2018-12-22T23:00:55.178Z,5.90
2018-12-22T23:02:58.169Z,5.90
2018-12-22T23:05:00.278Z,6.00
2018-12-22T23:07:02.758Z,6.00
2018-12-22T23:09:06.339Z,6.00
2018-12-22T23:11:08.540Z,6.00
2018-12-22T23:13:10.738Z,6.00
2018-12-22T23:15:12.829Z,6.00
2018-12-22T23:17:14.889Z,6.00
2018-12-22T23:19:17.243Z,6.00
2018-12-22T23:21:19.448Z,6.00
2018-12-22T23:23:21.624Z,6.10
2018-12-22T23:25:27.820Z,6.10
2018-12-22T23:27:29.939Z,6.10
2018-12-22T23:29:32.012Z,6.10
2018-12-22T23:31:34.333Z,6.10
2018-12-22T23:33:36.586Z,6.10
2018-12-22T23:35:39.177Z,6.10
2018-12-22T23:37:41.382Z,6.10
2018-12-22T23:39:43.497Z,6.10
2018-12-22T23:41:45.706Z,6.20
2018-12-22T23:43:47.944Z,6.20
2018-12-22T23:45:50.196Z,6.20
2018-12-22T23:47:52.381Z,6.20
2018-12-22T23:49:54.684Z,6.20
2018-12-22T23:51:57.014Z,6.20
2018-12-22T23:53:59.216Z,6.20
2018-12-22T23:56:01.311Z,6.20
2018-12-22T23:58:03.704Z,6.20
